sensor_id;sensor_type;location;lat;lon;timestamp;P1;P2;P0
80289;PMS7003;69592;44.804;-0.550;2024-03-22T00:05:23;33.00;29.50;20.25
80289;PMS7003;69592;44.804;-0.550;2024-03-22T00:07:49;38.50;31.50;20.50
80289;PMS7003;69592;44.804;-0.550;2024-03-22T00:10:14;33.50;33.00;23.25
80289;PMS7003;69592;44.804;-0.550;2024-03-22T00:12:39;28.00;27.00;20.00
80289;PMS7003;69592;44.804;-0.550;2024-03-22T00:15:05;23.67;23.33;16.33
80289;PMS7003;69592;44.804;-0.550;2024-03-22T00:17:30;29.33;25.33;17.00
80289;PMS7003;69592;44.804;-0.550;2024-03-22T00:19:56;26.33;22.00;15.00
80289;PMS7003;69592;44.804;-0.550;2024-03-22T00:22:21;21.00;19.33;14.33
80289;PMS7003;69592;44.804;-0.550;2024-03-22T00:24:46;24.00;21.33;14.33
80289;PMS7003;69592;44.804;-0.550;2024-03-22T00:27:12;22.00;21.33;15.00
80289;PMS7003;69592;44.804;-0.550;2024-03-22T00:29:37;33.00;27.00;19.75
80289;PMS7003;69592;44.804;-0.550;2024-03-22T00:32:03;29.00;27.67;18.00
80289;PMS7003;69592;44.804;-0.550;2024-03-22T00:34:28;25.50;22.75;15.75
80289;PMS7003;69592;44.804;-0.550;2024-03-22T00:36:54;32.25;28.50;20.25
80289;PMS7003;69592;44.804;-0.550;2024-03-22T00:39:19;26.33;23.33;16.33
80289;PMS7003;69592;44.804;-0.550;2024-03-22T00:41:44;24.75;21.25;15.50
80289;PMS7003;69592;44.804;-0.550;2024-03-22T00:44:09;27.00;22.50;13.00
80289;PMS7003;69592;44.804;-0.550;2024-03-22T00:46:34;24.50;24.50;18.00
80289;PMS7003;69592;44.804;-0.550;2024-03-22T00:49:00;33.00;27.33;19.00
80289;PMS7003;69592;44.804;-0.550;2024-03-22T00:51:26;25.75;24.50;15.75
80289;PMS7003;69592;44.804;-0.550;2024-03-22T00:53:51;25.00;22.00;13.75
80289;PMS7003;69592;44.804;-0.550;2024-03-22T00:56:16;31.75;27.00;19.25
80289;PMS7003;69592;44.804;-0.550;2024-03-22T00:58:42;25.00;22.67;16.00
80289;PMS7003;69592;44.804;-0.550;2024-03-22T01:01:07;22.00;22.00;15.67
80289;PMS7003;69592;44.804;-0.550;2024-03-22T01:03:32;21.33;21.33;16.00
80289;PMS7003;69592;44.804;-0.550;2024-03-22T01:05:57;22.00;20.33;14.67
80289;PMS7003;69592;44.804;-0.550;2024-03-22T01:08:22;22.00;21.00;12.67
80289;PMS7003;69592;44.804;-0.550;2024-03-22T01:10:48;23.00;23.00;17.33
80289;PMS7003;69592;44.804;-0.550;2024-03-22T01:13:13;19.50;19.25;13.75
80289;PMS7003;69592;44.804;-0.550;2024-03-22T01:15:38;21.50;21.00;15.50
80289;PMS7003;69592;44.804;-0.550;2024-03-22T01:18:04;19.33;17.67;13.67
80289;PMS7003;69592;44.804;-0.550;2024-03-22T01:20:29;20.67;19.67;13.33
80289;PMS7003;69592;44.804;-0.550;2024-03-22T01:22:55;26.00;24.67;14.67
80289;PMS7003;69592;44.804;-0.550;2024-03-22T01:25:20;22.67;20.00;15.00
80289;PMS7003;69592;44.804;-0.550;2024-03-22T01:27:45;23.67;22.67;16.00
80289;PMS7003;69592;44.804;-0.550;2024-03-22T01:30:10;22.33;20.00;14.00
80289;PMS7003;69592;44.804;-0.550;2024-03-22T01:32:36;22.67;19.33;13.33
80289;PMS7003;69592;44.804;-0.550;2024-03-22T01:35:01;21.00;20.00;13.00
80289;PMS7003;69592;44.804;-0.550;2024-03-22T01:37:26;19.00;15.67;11.67
80289;PMS7003;69592;44.804;-0.550;2024-03-22T01:39:52;20.00;20.00;14.00
80289;PMS7003;69592;44.804;-0.550;2024-03-22T01:42:17;20.00;17.67;12.33
80289;PMS7003;69592;44.804;-0.550;2024-03-22T01:44:42;17.67;15.33;12.33
80289;PMS7003;69592;44.804;-0.550;2024-03-22T01:47:07;18.33;18.33;12.67
80289;PMS7003;69592;44.804;-0.550;2024-03-22T01:49:33;18.00;18.00;14.00
80289;PMS7003;69592;44.804;-0.550;2024-03-22T01:51:58;19.33;19.33;13.67
80289;PMS7003;69592;44.804;-0.550;2024-03-22T01:54:23;32.00;29.50;19.75
80289;PMS7003;69592;44.804;-0.550;2024-03-22T01:56:48;20.50;20.25;13.75
80289;PMS7003;69592;44.804;-0.550;2024-03-22T01:59:14;20.33;18.33;14.00
80289;PMS7003;69592;44.804;-0.550;2024-03-22T02:01:39;23.25;23.25;15.25
80289;PMS7003;69592;44.804;-0.550;2024-03-22T02:04:05;28.00;21.75;16.50
80289;PMS7003;69592;44.804;-0.550;2024-03-22T02:06:30;25.50;23.75;18.00
80289;PMS7003;69592;44.804;-0.550;2024-03-22T02:08:56;33.25;30.50;20.00
80289;PMS7003;69592;44.804;-0.550;2024-03-22T02:11:21;32.50;29.00;20.00
80289;PMS7003;69592;44.804;-0.550;2024-03-22T02:13:46;37.25;33.50;21.75
80289;PMS7003;69592;44.804;-0.550;2024-03-22T02:16:12;37.50;35.25;24.25
80289;PMS7003;69592;44.804;-0.550;2024-03-22T02:18:37;35.75;34.00;23.00
80289;PMS7003;69592;44.804;-0.550;2024-03-22T02:21:02;40.50;35.50;23.50
80289;PMS7003;69592;44.804;-0.550;2024-03-22T02:23:34;33.75;32.25;23.00
80289;PMS7003;69592;44.804;-0.550;2024-03-22T02:26:00;35.25;30.75;22.25
80289;PMS7003;69592;44.804;-0.550;2024-03-22T02:28:25;35.00;31.00;20.25
80289;PMS7003;69592;44.804;-0.550;2024-03-22T02:30:50;38.25;36.75;24.25
80289;PMS7003;69592;44.804;-0.550;2024-03-22T02:33:15;39.75;34.50;20.50
80289;PMS7003;69592;44.804;-0.550;2024-03-22T02:35:41;43.75;36.50;24.00
80289;PMS7003;69592;44.804;-0.550;2024-03-22T02:38:06;36.75;29.75;22.25
80289;PMS7003;69592;44.804;-0.550;2024-03-22T02:40:31;35.00;29.50;20.50
80289;PMS7003;69592;44.804;-0.550;2024-03-22T02:42:56;36.50;32.50;21.00
80289;PMS7003;69592;44.804;-0.550;2024-03-22T02:45:21;41.00;35.50;20.75
80289;PMS7003;69592;44.804;-0.550;2024-03-22T02:47:47;35.50;33.50;23.25
80289;PMS7003;69592;44.804;-0.550;2024-03-22T02:50:12;33.50;29.50;20.25
80289;PMS7003;69592;44.804;-0.550;2024-03-22T02:52:38;37.50;32.25;22.00
80289;PMS7003;69592;44.804;-0.550;2024-03-22T02:55:03;29.00;28.75;20.00
80289;PMS7003;69592;44.804;-0.550;2024-03-22T02:57:28;32.00;30.50;20.50
80289;PMS7003;69592;44.804;-0.550;2024-03-22T02:59:53;33.75;30.00;20.50
80289;PMS7003;69592;44.804;-0.550;2024-03-22T03:02:19;30.50;30.00;19.50
80289;PMS7003;69592;44.804;-0.550;2024-03-22T03:04:44;30.25;27.25;16.75
80289;PMS7003;69592;44.804;-0.550;2024-03-22T03:07:10;30.50;29.00;18.50
80289;PMS7003;69592;44.804;-0.550;2024-03-22T03:09:35;36.00;32.00;19.75
80289;PMS7003;69592;44.804;-0.550;2024-03-22T03:12:01;36.25;32.25;23.00
80289;PMS7003;69592;44.804;-0.550;2024-03-22T03:14:26;32.25;31.50;19.25
80289;PMS7003;69592;44.804;-0.550;2024-03-22T03:16:51;32.00;29.00;20.00
80289;PMS7003;69592;44.804;-0.550;2024-03-22T03:19:16;26.25;24.25;18.25
80289;PMS7003;69592;44.804;-0.550;2024-03-22T03:21:42;30.00;29.50;22.50
80289;PMS7003;69592;44.804;-0.550;2024-03-22T03:24:07;33.75;31.00;20.25
80289;PMS7003;69592;44.804;-0.550;2024-03-22T03:26:34;40.00;29.00;18.75
80289;PMS7003;69592;44.804;-0.550;2024-03-22T03:28:59;31.75;29.00;19.50
80289;PMS7003;69592;44.804;-0.550;2024-03-22T03:31:24;39.50;34.00;22.00
80289;PMS7003;69592;44.804;-0.550;2024-03-22T03:33:50;27.75;27.75;19.00
80289;PMS7003;69592;44.804;-0.550;2024-03-22T03:36:18;29.50;24.75;14.00
80289;PMS7003;69592;44.804;-0.550;2024-03-22T03:38:43;27.50;25.50;18.00
80289;PMS7003;69592;44.804;-0.550;2024-03-22T03:41:08;26.00;25.75;19.00
80289;PMS7003;69592;44.804;-0.550;2024-03-22T03:43:33;29.00;24.75;17.00
80289;PMS7003;69592;44.804;-0.550;2024-03-22T03:45:59;24.00;23.50;18.00
80289;PMS7003;69592;44.804;-0.550;2024-03-22T03:48:25;31.25;27.75;17.25
80289;PMS7003;69592;44.804;-0.550;2024-03-22T03:50:53;25.75;23.50;15.50
80289;PMS7003;69592;44.804;-0.550;2024-03-22T03:53:20;23.75;23.75;17.75
80289;PMS7003;69592;44.804;-0.550;2024-03-22T03:55:46;31.25;25.75;17.00
80289;PMS7003;69592;44.804;-0.550;2024-03-22T03:58:11;23.00;23.00;16.50
80289;PMS7003;69592;44.804;-0.550;2024-03-22T04:00:37;22.50;18.75;9.25
80289;PMS7003;69592;44.804;-0.550;2024-03-22T04:03:02;21.25;21.25;14.25
80289;PMS7003;69592;44.804;-0.550;2024-03-22T04:05:27;23.50;20.50;14.50
80289;PMS7003;69592;44.804;-0.550;2024-03-22T04:07:53;22.50;20.50;15.00
80289;PMS7003;69592;44.804;-0.550;2024-03-22T04:10:18;19.50;17.00;11.75
80289;PMS7003;69592;44.804;-0.550;2024-03-22T04:12:44;18.25;16.75;12.00
80289;PMS7003;69592;44.804;-0.550;2024-03-22T04:15:09;21.50;20.00;14.50
80289;PMS7003;69592;44.804;-0.550;2024-03-22T04:17:35;19.50;19.50;13.75
80289;PMS7003;69592;44.804;-0.550;2024-03-22T04:20:00;19.00;18.50;14.25
80289;PMS7003;69592;44.804;-0.550;2024-03-22T04:22:25;22.00;19.75;13.00
80289;PMS7003;69592;44.804;-0.550;2024-03-22T04:24:51;23.75;21.75;14.75
80289;PMS7003;69592;44.804;-0.550;2024-03-22T04:27:16;19.25;18.50;12.25
80289;PMS7003;69592;44.804;-0.550;2024-03-22T04:29:41;22.00;20.50;16.00
80289;PMS7003;69592;44.804;-0.550;2024-03-22T04:32:06;18.50;18.50;12.50
80289;PMS7003;69592;44.804;-0.550;2024-03-22T04:34:31;21.75;19.75;13.75
80289;PMS7003;69592;44.804;-0.550;2024-03-22T04:36:57;18.00;16.75;12.75
80289;PMS7003;69592;44.804;-0.550;2024-03-22T04:39:22;19.75;17.75;13.50
80289;PMS7003;69592;44.804;-0.550;2024-03-22T04:41:49;18.25;18.25;13.00
80289;PMS7003;69592;44.804;-0.550;2024-03-22T04:44:14;26.00;21.00;14.25
80289;PMS7003;69592;44.804;-0.550;2024-03-22T04:46:40;16.00;16.00;11.50
80289;PMS7003;69592;44.804;-0.550;2024-03-22T04:49:05;20.75;17.50;13.00
80289;PMS7003;69592;44.804;-0.550;2024-03-22T04:51:30;16.50;14.75;12.00
80289;PMS7003;69592;44.804;-0.550;2024-03-22T04:53:55;18.50;18.50;12.00
80289;PMS7003;69592;44.804;-0.550;2024-03-22T04:56:20;17.25;17.25;12.75
80289;PMS7003;69592;44.804;-0.550;2024-03-22T04:58:46;19.50;19.50;15.25
80289;PMS7003;69592;44.804;-0.550;2024-03-22T05:01:11;23.00;20.50;14.75
80289;PMS7003;69592;44.804;-0.550;2024-03-22T05:03:37;19.75;18.25;13.00
80289;PMS7003;69592;44.804;-0.550;2024-03-22T05:06:03;17.25;17.25;13.25
80289;PMS7003;69592;44.804;-0.550;2024-03-22T05:08:28;17.25;15.25;12.00
80289;PMS7003;69592;44.804;-0.550;2024-03-22T05:10:53;16.50;16.50;11.25
80289;PMS7003;69592;44.804;-0.550;2024-03-22T05:13:19;19.25;17.25;12.00
80289;PMS7003;69592;44.804;-0.550;2024-03-22T05:15:44;18.25;17.50;14.00
80289;PMS7003;69592;44.804;-0.550;2024-03-22T05:18:09;19.75;17.00;12.75
80289;PMS7003;69592;44.804;-0.550;2024-03-22T05:20:35;17.50;17.25;10.75
80289;PMS7003;69592;44.804;-0.550;2024-03-22T05:23:00;17.25;17.00;12.75
80289;PMS7003;69592;44.804;-0.550;2024-03-22T05:25:25;17.25;16.00;12.00
80289;PMS7003;69592;44.804;-0.550;2024-03-22T05:27:50;16.25;16.25;10.75
80289;PMS7003;69592;44.804;-0.550;2024-03-22T05:30:17;25.25;20.75;15.00
80289;PMS7003;69592;44.804;-0.550;2024-03-22T05:32:42;21.00;20.25;16.00
80289;PMS7003;69592;44.804;-0.550;2024-03-22T05:35:08;24.75;21.75;14.00
80289;PMS7003;69592;44.804;-0.550;2024-03-22T05:37:33;29.00;25.00;14.25
80289;PMS7003;69592;44.804;-0.550;2024-03-22T05:40:02;24.25;20.00;16.25
80289;PMS7003;69592;44.804;-0.550;2024-03-22T05:42:29;25.50;22.75;16.75
80289;PMS7003;69592;44.804;-0.550;2024-03-22T05:44:55;25.25;21.50;14.75
80289;PMS7003;69592;44.804;-0.550;2024-03-22T05:47:20;25.25;24.00;16.25
80289;PMS7003;69592;44.804;-0.550;2024-03-22T05:49:46;24.75;24.00;14.00
80289;PMS7003;69592;44.804;-0.550;2024-03-22T05:52:11;21.75;21.75;14.00
80289;PMS7003;69592;44.804;-0.550;2024-03-22T05:54:37;23.00;21.00;16.00
80289;PMS7003;69592;44.804;-0.550;2024-03-22T05:57:02;22.50;22.50;17.25
80289;PMS7003;69592;44.804;-0.550;2024-03-22T05:59:27;20.25;17.25;13.25
80289;PMS7003;69592;44.804;-0.550;2024-03-22T06:01:52;22.75;22.00;17.25
80289;PMS7003;69592;44.804;-0.550;2024-03-22T06:04:18;22.25;21.00;15.00
80289;PMS7003;69592;44.804;-0.550;2024-03-22T06:06:43;18.75;18.75;14.75
80289;PMS7003;69592;44.804;-0.550;2024-03-22T06:09:08;24.25;20.75;13.50
80289;PMS7003;69592;44.804;-0.550;2024-03-22T06:11:36;20.75;19.50;15.25
80289;PMS7003;69592;44.804;-0.550;2024-03-22T06:14:01;20.75;20.00;16.50
80289;PMS7003;69592;44.804;-0.550;2024-03-22T06:16:26;21.25;20.75;15.00
80289;PMS7003;69592;44.804;-0.550;2024-03-22T06:18:52;21.50;21.50;17.25
80289;PMS7003;69592;44.804;-0.550;2024-03-22T06:21:17;24.50;22.00;16.25
80289;PMS7003;69592;44.804;-0.550;2024-03-22T06:23:49;25.00;25.00;17.25
80289;PMS7003;69592;44.804;-0.550;2024-03-22T06:26:14;23.25;23.25;15.25
80289;PMS7003;69592;44.804;-0.550;2024-03-22T06:28:39;25.00;22.25;14.25
80289;PMS7003;69592;44.804;-0.550;2024-03-22T06:31:04;23.25;20.50;16.00
80289;PMS7003;69592;44.804;-0.550;2024-03-22T06:33:29;20.50;19.25;14.00
80289;PMS7003;69592;44.804;-0.550;2024-03-22T06:35:55;24.25;22.00;17.25
80289;PMS7003;69592;44.804;-0.550;2024-03-22T06:38:20;24.50;21.00;16.50
80289;PMS7003;69592;44.804;-0.550;2024-03-22T06:40:45;26.50;23.50;16.00
80289;PMS7003;69592;44.804;-0.550;2024-03-22T06:43:11;29.50;29.50;19.25
80289;PMS7003;69592;44.804;-0.550;2024-03-22T06:45:36;23.00;21.25;16.50
80289;PMS7003;69592;44.804;-0.550;2024-03-22T06:48:01;25.25;24.00;17.50
80289;PMS7003;69592;44.804;-0.550;2024-03-22T06:50:27;25.75;24.75;16.25
80289;PMS7003;69592;44.804;-0.550;2024-03-22T06:52:53;23.50;23.50;16.25
80289;PMS7003;69592;44.804;-0.550;2024-03-22T06:55:18;28.00;22.75;16.00
80289;PMS7003;69592;44.804;-0.550;2024-03-22T06:57:45;26.00;22.75;16.50
80289;PMS7003;69592;44.804;-0.550;2024-03-22T07:00:11;21.50;20.50;15.75
80289;PMS7003;69592;44.804;-0.550;2024-03-22T07:02:36;21.50;17.25;13.25
80289;PMS7003;69592;44.804;-0.550;2024-03-22T07:05:01;25.25;22.50;16.50
80289;PMS7003;69592;44.804;-0.550;2024-03-22T07:07:30;28.50;24.50;17.00
80289;PMS7003;69592;44.804;-0.550;2024-03-22T07:09:56;18.75;15.25;14.00
80289;PMS7003;69592;44.804;-0.550;2024-03-22T07:12:21;21.00;21.00;16.00
80289;PMS7003;69592;44.804;-0.550;2024-03-22T07:14:47;27.75;25.75;16.50
80289;PMS7003;69592;44.804;-0.550;2024-03-22T07:17:12;22.25;18.25;13.00
80289;PMS7003;69592;44.804;-0.550;2024-03-22T07:19:37;26.50;21.50;16.25
80289;PMS7003;69592;44.804;-0.550;2024-03-22T07:22:03;23.25;22.50;15.25
80289;PMS7003;69592;44.804;-0.550;2024-03-22T07:24:31;24.25;22.50;17.00
80289;PMS7003;69592;44.804;-0.550;2024-03-22T07:26:57;21.00;19.00;13.25
80289;PMS7003;69592;44.804;-0.550;2024-03-22T07:29:22;23.00;21.50;16.25
80289;PMS7003;69592;44.804;-0.550;2024-03-22T07:31:47;23.50;23.50;18.00
80289;PMS7003;69592;44.804;-0.550;2024-03-22T07:34:12;28.00;25.25;17.50
80289;PMS7003;69592;44.804;-0.550;2024-03-22T07:36:38;30.50;23.25;17.00
80289;PMS7003;69592;44.804;-0.550;2024-03-22T07:39:03;23.25;22.00;18.00
80289;PMS7003;69592;44.804;-0.550;2024-03-22T07:41:31;29.75;24.00;17.50
80289;PMS7003;69592;44.804;-0.550;2024-03-22T07:43:57;30.25;25.00;16.50
80289;PMS7003;69592;44.804;-0.550;2024-03-22T07:46:22;25.00;24.50;18.00
80289;PMS7003;69592;44.804;-0.550;2024-03-22T07:48:48;27.00;25.50;19.00
80289;PMS7003;69592;44.804;-0.550;2024-03-22T07:51:14;28.00;27.25;18.25
80289;PMS7003;69592;44.804;-0.550;2024-03-22T07:53:39;26.50;24.00;18.00
80289;PMS7003;69592;44.804;-0.550;2024-03-22T07:56:04;26.75;25.25;18.00
80289;PMS7003;69592;44.804;-0.550;2024-03-22T07:58:29;27.00;25.25;17.75
80289;PMS7003;69592;44.804;-0.550;2024-03-22T08:00:55;28.75;27.75;18.50
80289;PMS7003;69592;44.804;-0.550;2024-03-22T08:03:21;31.50;29.00;19.00
80289;PMS7003;69592;44.804;-0.550;2024-03-22T08:05:46;22.50;15.00;12.75
80289;PMS7003;69592;44.804;-0.550;2024-03-22T08:08:11;23.75;23.75;15.75
80289;PMS7003;69592;44.804;-0.550;2024-03-22T08:10:37;23.50;20.50;14.00
80289;PMS7003;69592;44.804;-0.550;2024-03-22T08:13:02;27.50;22.00;16.25
80289;PMS7003;69592;44.804;-0.550;2024-03-22T08:15:27;28.75;22.75;16.25
80289;PMS7003;69592;44.804;-0.550;2024-03-22T08:17:53;25.50;25.00;18.75
80289;PMS7003;69592;44.804;-0.550;2024-03-22T08:20:19;26.25;25.25;15.75
80289;PMS7003;69592;44.804;-0.550;2024-03-22T08:22:44;23.33;20.00;14.00
80289;PMS7003;69592;44.804;-0.550;2024-03-22T08:25:09;18.00;15.75;12.50
80289;PMS7003;69592;44.804;-0.550;2024-03-22T08:27:34;22.00;21.33;15.00
80289;PMS7003;69592;44.804;-0.550;2024-03-22T08:30:00;19.50;18.50;15.00
80289;PMS7003;69592;44.804;-0.550;2024-03-22T08:32:25;23.00;21.33;15.33
80289;PMS7003;69592;44.804;-0.550;2024-03-22T08:34:50;21.00;19.67;14.00
80289;PMS7003;69592;44.804;-0.550;2024-03-22T08:37:15;19.67;19.67;14.67
80289;PMS7003;69592;44.804;-0.550;2024-03-22T08:39:40;23.00;19.67;15.00
80289;PMS7003;69592;44.804;-0.550;2024-03-22T08:42:06;22.00;22.00;16.00
80289;PMS7003;69592;44.804;-0.550;2024-03-22T08:44:31;22.33;20.67;14.67
80289;PMS7003;69592;44.804;-0.550;2024-03-22T08:46:56;23.50;23.00;15.50
80289;PMS7003;69592;44.804;-0.550;2024-03-22T08:49:21;21.00;20.00;15.00
80289;PMS7003;69592;44.804;-0.550;2024-03-22T08:51:48;20.33;19.00;15.00
80289;PMS7003;69592;44.804;-0.550;2024-03-22T08:54:13;34.00;29.33;18.00
80289;PMS7003;69592;44.804;-0.550;2024-03-22T08:56:39;22.00;20.67;15.67
80289;PMS7003;69592;44.804;-0.550;2024-03-22T08:59:04;22.67;19.00;14.33
80289;PMS7003;69592;44.804;-0.550;2024-03-22T09:01:30;26.00;20.00;14.67
80289;PMS7003;69592;44.804;-0.550;2024-03-22T09:03:55;27.33;25.67;16.33
80289;PMS7003;69592;44.804;-0.550;2024-03-22T09:06:21;19.67;19.67;15.00
80289;PMS7003;69592;44.804;-0.550;2024-03-22T09:08:46;18.00;18.00;13.33
80289;PMS7003;69592;44.804;-0.550;2024-03-22T09:11:11;21.00;19.00;13.67
80289;PMS7003;69592;44.804;-0.550;2024-03-22T09:13:37;18.00;17.67;12.00
80289;PMS7003;69592;44.804;-0.550;2024-03-22T09:16:03;20.67;20.67;14.33
80289;PMS7003;69592;44.804;-0.550;2024-03-22T09:18:28;20.33;18.33;13.00
80289;PMS7003;69592;44.804;-0.550;2024-03-22T09:20:54;20.67;19.67;14.33
80289;PMS7003;69592;44.804;-0.550;2024-03-22T09:23:19;19.00;18.00;14.00
80289;PMS7003;69592;44.804;-0.550;2024-03-22T09:25:45;18.67;18.67;14.33
80289;PMS7003;69592;44.804;-0.550;2024-03-22T09:28:11;16.00;16.00;12.00
80289;PMS7003;69592;44.804;-0.550;2024-03-22T09:30:39;16.67;16.67;13.00
80289;PMS7003;69592;44.804;-0.550;2024-03-22T09:33:05;14.00;13.33;10.00
80289;PMS7003;69592;44.804;-0.550;2024-03-22T09:35:34;14.33;13.67;11.33
80289;PMS7003;69592;44.804;-0.550;2024-03-22T09:37:59;15.67;15.67;11.67
80289;PMS7003;69592;44.804;-0.550;2024-03-22T09:40:24;16.33;14.67;10.33
80289;PMS7003;69592;44.804;-0.550;2024-03-22T09:42:50;17.33;15.67;11.67
80289;PMS7003;69592;44.804;-0.550;2024-03-22T09:45:17;15.67;13.67;12.00
80289;PMS7003;69592;44.804;-0.550;2024-03-22T09:47:43;14.33;12.33;9.00
80289;PMS7003;69592;44.804;-0.550;2024-03-22T09:50:09;15.33;14.00;9.33
80289;PMS7003;69592;44.804;-0.550;2024-03-22T09:52:36;15.00;15.00;11.00
80289;PMS7003;69592;44.804;-0.550;2024-03-22T09:55:03;11.67;10.67;8.33
80289;PMS7003;69592;44.804;-0.550;2024-03-22T09:57:29;14.33;14.00;9.67
80289;PMS7003;69592;44.804;-0.550;2024-03-22T09:59:55;17.67;17.00;12.33
80289;PMS7003;69592;44.804;-0.550;2024-03-22T10:02:21;16.33;16.33;10.67
80289;PMS7003;69592;44.804;-0.550;2024-03-22T10:04:48;15.33;15.33;11.00
80289;PMS7003;69592;44.804;-0.550;2024-03-22T10:07:15;17.00;17.00;12.00
80289;PMS7003;69592;44.804;-0.550;2024-03-22T10:09:41;17.33;16.67;11.00
80289;PMS7003;69592;44.804;-0.550;2024-03-22T10:12:07;12.33;12.33;10.00
80289;PMS7003;69592;44.804;-0.550;2024-03-22T10:14:33;12.67;10.00;7.00
80289;PMS7003;69592;44.804;-0.550;2024-03-22T10:16:58;11.67;9.33;8.00
80289;PMS7003;69592;44.804;-0.550;2024-03-22T10:19:24;16.00;15.00;11.00
80289;PMS7003;69592;44.804;-0.550;2024-03-22T10:22:02;15.67;15.67;10.00
80289;PMS7003;69592;44.804;-0.550;2024-03-22T10:24:28;16.67;15.00;10.67
80289;PMS7003;69592;44.804;-0.550;2024-03-22T10:26:53;15.33;14.00;8.33
80289;PMS7003;69592;44.804;-0.550;2024-03-22T10:29:19;13.00;13.00;10.33
80289;PMS7003;69592;44.804;-0.550;2024-03-22T10:31:45;19.00;17.67;11.00
80289;PMS7003;69592;44.804;-0.550;2024-03-22T10:34:10;12.33;12.00;10.00
80289;PMS7003;69592;44.804;-0.550;2024-03-22T10:36:36;11.67;11.67;10.00
80289;PMS7003;69592;44.804;-0.550;2024-03-22T10:39:01;12.00;9.00;7.33
80289;PMS7003;69592;44.804;-0.550;2024-03-22T10:41:29;13.00;11.00;9.00
80289;PMS7003;69592;44.804;-0.550;2024-03-22T10:43:54;10.50;10.50;7.75
80289;PMS7003;69592;44.804;-0.550;2024-03-22T10:46:22;12.50;12.00;9.25
80289;PMS7003;69592;44.804;-0.550;2024-03-22T10:48:53;13.00;11.00;8.25
80289;PMS7003;69592;44.804;-0.550;2024-03-22T10:51:20;12.75;10.75;9.00
80289;PMS7003;69592;44.804;-0.550;2024-03-22T10:53:46;11.50;11.50;9.00
80289;PMS7003;69592;44.804;-0.550;2024-03-22T10:56:11;11.75;11.00;9.00
80289;PMS7003;69592;44.804;-0.550;2024-03-22T10:58:41;15.00;12.00;9.25
80289;PMS7003;69592;44.804;-0.550;2024-03-22T11:01:07;11.25;10.75;8.00
80289;PMS7003;69592;44.804;-0.550;2024-03-22T11:03:46;14.00;10.50;8.00
80289;PMS7003;69592;44.804;-0.550;2024-03-22T11:06:17;9.25;9.25;7.75
80289;PMS7003;69592;44.804;-0.550;2024-03-22T11:08:43;9.75;8.75;7.00
80289;PMS7003;69592;44.804;-0.550;2024-03-22T11:11:11;10.25;9.25;6.25
80289;PMS7003;69592;44.804;-0.550;2024-03-22T11:13:38;9.75;9.75;7.50
80289;PMS7003;69592;44.804;-0.550;2024-03-22T11:16:04;10.00;10.00;8.00
80289;PMS7003;69592;44.804;-0.550;2024-03-22T11:18:29;8.75;8.50;7.00
80289;PMS7003;69592;44.804;-0.550;2024-03-22T11:20:55;10.25;10.00;8.00
80289;PMS7003;69592;44.804;-0.550;2024-03-22T11:23:20;7.25;7.25;6.00
80289;PMS7003;69592;44.804;-0.550;2024-03-22T11:25:45;11.00;7.50;6.25
80289;PMS7003;69592;44.804;-0.550;2024-03-22T11:28:11;9.00;9.00;7.00
80289;PMS7003;69592;44.804;-0.550;2024-03-22T11:30:37;8.00;7.25;6.50
80289;PMS7003;69592;44.804;-0.550;2024-03-22T11:33:03;9.25;9.25;7.00
80289;PMS7003;69592;44.804;-0.550;2024-03-22T11:35:28;6.75;5.00;2.00
80289;PMS7003;69592;44.804;-0.550;2024-03-22T11:37:53;8.75;8.75;7.00
80289;PMS7003;69592;44.804;-0.550;2024-03-22T11:40:19;11.25;10.25;7.75
80289;PMS7003;69592;44.804;-0.550;2024-03-22T11:42:46;9.75;7.00;5.50
80289;PMS7003;69592;44.804;-0.550;2024-03-22T11:45:11;10.60;8.80;8.00
80289;PMS7003;69592;44.804;-0.550;2024-03-22T11:47:41;9.50;9.50;7.00
80289;PMS7003;69592;44.804;-0.550;2024-03-22T11:50:07;9.50;8.25;6.50
80289;PMS7003;69592;44.804;-0.550;2024-03-22T11:52:32;11.50;9.25;7.00
80289;PMS7003;69592;44.804;-0.550;2024-03-22T11:54:57;11.00;11.00;8.00
80289;PMS7003;69592;44.804;-0.550;2024-03-22T11:57:23;12.00;12.00;8.00
80289;PMS7003;69592;44.804;-0.550;2024-03-22T11:59:48;8.75;8.25;6.00
80289;PMS7003;69592;44.804;-0.550;2024-03-22T12:02:17;11.75;10.25;8.00
80289;PMS7003;69592;44.804;-0.550;2024-03-22T12:04:45;10.40;9.40;7.40
80289;PMS7003;69592;44.804;-0.550;2024-03-22T12:07:11;12.00;9.50;7.00
80289;PMS7003;69592;44.804;-0.550;2024-03-22T12:09:37;7.75;7.75;7.25
80289;PMS7003;69592;44.804;-0.550;2024-03-22T12:12:03;9.50;9.50;7.25
80289;PMS7003;69592;44.804;-0.550;2024-03-22T12:14:28;8.20;7.00;6.20
80289;PMS7003;69592;44.804;-0.550;2024-03-22T12:16:53;10.00;9.25;6.00
80289;PMS7003;69592;44.804;-0.550;2024-03-22T12:19:19;8.25;8.25;7.00
80289;PMS7003;69592;44.804;-0.550;2024-03-22T12:21:44;11.00;9.00;7.00
80289;PMS7003;69592;44.804;-0.550;2024-03-22T12:24:09;8.50;8.50;7.00
80289;PMS7003;69592;44.804;-0.550;2024-03-22T12:26:34;8.75;8.75;7.50
80289;PMS7003;69592;44.804;-0.550;2024-03-22T12:28:59;7.50;7.00;5.25
80289;PMS7003;69592;44.804;-0.550;2024-03-22T12:31:25;6.25;6.00;4.75
80289;PMS7003;69592;44.804;-0.550;2024-03-22T12:33:50;6.75;6.75;5.00
80289;PMS7003;69592;44.804;-0.550;2024-03-22T12:36:15;7.25;7.25;6.25
80289;PMS7003;69592;44.804;-0.550;2024-03-22T12:38:40;7.50;6.25;5.00
80289;PMS7003;69592;44.804;-0.550;2024-03-22T12:41:05;10.75;6.75;5.75
80289;PMS7003;69592;44.804;-0.550;2024-03-22T12:43:32;7.80;7.00;6.00
80289;PMS7003;69592;44.804;-0.550;2024-03-22T12:45:57;3.75;3.75;3.75
80289;PMS7003;69592;44.804;-0.550;2024-03-22T12:48:22;8.25;7.50;5.75
80289;PMS7003;69592;44.804;-0.550;2024-03-22T12:50:47;10.00;9.00;7.00
80289;PMS7003;69592;44.804;-0.550;2024-03-22T12:53:12;6.00;6.00;5.50
80289;PMS7003;69592;44.804;-0.550;2024-03-22T12:55:38;6.75;6.00;5.00
80289;PMS7003;69592;44.804;-0.550;2024-03-22T12:58:03;6.00;6.00;5.00
80289;PMS7003;69592;44.804;-0.550;2024-03-22T13:00:29;7.40;7.00;5.00
80289;PMS7003;69592;44.804;-0.550;2024-03-22T13:02:54;4.00;4.00;3.25
80289;PMS7003;69592;44.804;-0.550;2024-03-22T13:05:20;6.25;6.25;5.00
80289;PMS7003;69592;44.804;-0.550;2024-03-22T13:07:45;6.50;6.00;5.00
80289;PMS7003;69592;44.804;-0.550;2024-03-22T13:10:11;7.50;7.50;6.25
80289;PMS7003;69592;44.804;-0.550;2024-03-22T13:12:36;5.75;5.75;4.50
80289;PMS7003;69592;44.804;-0.550;2024-03-22T13:15:02;4.75;4.75;3.00
80289;PMS7003;69592;44.804;-0.550;2024-03-22T13:17:27;8.00;6.50;5.00
80289;PMS7003;69592;44.804;-0.550;2024-03-22T13:19:53;4.00;4.00;3.00
80289;PMS7003;69592;44.804;-0.550;2024-03-22T13:22:21;8.25;6.75;5.00
80289;PMS7003;69592;44.804;-0.550;2024-03-22T13:24:46;5.80;5.00;5.00
80289;PMS7003;69592;44.804;-0.550;2024-03-22T13:27:12;7.00;7.00;5.75
80289;PMS7003;69592;44.804;-0.550;2024-03-22T13:29:40;6.40;6.40;5.40
80289;PMS7003;69592;44.804;-0.550;2024-03-22T13:32:05;3.00;2.75;2.00
80289;PMS7003;69592;44.804;-0.550;2024-03-22T13:34:32;5.60;5.60;4.20
80289;PMS7003;69592;44.804;-0.550;2024-03-22T13:36:58;5.50;5.50;4.50